Time;durP1;ratioP1;P1;durP2;ratioP2;P2;SDS_P1;SDS_P2;PMS_P1;PMS_P2;Temp;Humidity;BMP_temperature;BMP_pressure;BME280_temperature;BME280_humidity;BME280_pressure;Samples;Min_cycle;Max_cycle;Signal;HPM_P1;HPM_P2
2023/09/02 00:00:15;;;;;;;10.50;4.90;;;19.00;99.90;;;;;;5053357;28;20481;-61
2023/09/02 00:02:41;;;;;;;4.90;4.40;;;19.00;99.90;;;;;;5053353;28;20469;-61
2023/09/02 00:05:08;;;;;;;5.50;4.40;;;19.00;99.90;;;;;;5053475;28;20446;-61
2023/09/02 00:07:35;;;;;;;4.17;3.50;;;19.00;99.90;;;;;;5053364;28;20449;-61
2023/09/02 00:10:02;;;;;;;8.40;3.53;;;19.00;99.90;;;;;;5053027;28;20959;-61
2023/09/02 00:12:29;;;;;;;5.13;3.90;;;19.00;99.90;;;;;;5053405;28;20500;-61
2023/09/02 00:14:55;;;;;;;8.03;4.40;;;19.00;99.90;;;;;;5053437;28;20441;-61
2023/09/02 00:17:23;;;;;;;5.00;3.60;;;19.00;99.90;;;;;;5053305;28;20441;-61
2023/09/02 00:19:50;;;;;;;5.53;4.43;;;19.00;99.90;;;;;;5053029;28;20551;-61
2023/09/02 00:22:17;;;;;;;3.73;3.37;;;19.00;99.90;;;;;;5053223;28;20469;-61
2023/09/02 00:24:44;;;;;;;5.07;3.63;;;19.00;99.90;;;;;;5052948;28;20446;-61
2023/09/02 00:27:10;;;;;;;6.77;4.13;;;19.00;99.90;;;;;;5054099;28;20825;-61
2023/09/02 00:29:37;;;;;;;4.77;3.40;;;19.00;99.90;;;;;;5057381;28;20449;-61
2023/09/02 00:32:04;;;;;;;6.40;2.73;;;19.00;99.90;;;;;;5057145;28;20461;-61
2023/09/02 00:34:32;;;;;;;2.83;2.63;;;19.00;99.90;;;;;;5057240;28;20448;-61
2023/09/02 00:36:59;;;;;;;3.33;3.03;;;19.00;99.90;;;;;;5057145;28;20441;-61
2023/09/02 00:39:26;;;;;;;6.60;2.53;;;19.00;99.90;;;;;;5057111;28;20484;-61
2023/09/02 00:41:55;;;;;;;3.57;2.70;;;19.00;99.90;;;;;;5057086;28;20484;-60
2023/09/02 00:44:22;;;;;;;3.20;2.90;;;18.90;99.90;;;;;;5057116;28;20449;-60
2023/09/02 00:46:49;;;;;;;3.57;2.70;;;18.90;99.90;;;;;;5057099;28;20445;-61
2023/09/02 00:49:15;;;;;;;4.87;2.60;;;18.90;99.90;;;;;;5056687;28;20846;-61
2023/09/02 00:51:43;;;;;;;5.90;2.80;;;18.90;99.90;;;;;;5056951;28;20468;-61
2023/09/02 00:54:10;;;;;;;2.70;2.50;;;18.90;99.90;;;;;;5056922;28;20449;-60
2023/09/02 00:56:37;;;;;;;5.93;3.03;;;18.90;99.90;;;;;;5056820;28;20456;-61
2023/09/02 00:59:05;;;;;;;2.63;2.43;;;18.90;99.90;;;;;;5056758;28;20453;-60
2023/09/02 01:01:35;;;;;;;7.80;2.93;;;18.90;99.90;;;;;;5056856;28;20508;-61
2023/09/02 01:04:03;;;;;;;7.33;3.13;;;18.80;99.90;;;;;;5058113;28;20445;-61
2023/09/02 01:06:30;;;;;;;2.60;2.40;;;18.80;99.90;;;;;;5059147;28;20528;-61
2023/09/02 01:08:58;;;;;;;4.27;2.90;;;18.80;99.90;;;;;;5056359;28;20441;-60
2023/09/02 01:11:25;;;;;;;7.93;3.20;;;18.80;99.90;;;;;;5056432;28;20495;-60
2023/09/02 01:13:51;;;;;;;3.07;1.97;;;18.80;99.90;;;;;;5056506;28;20449;-60
2023/09/02 01:16:18;;;;;;;2.97;2.77;;;18.80;99.90;;;;;;5056423;28;20441;-60
2023/09/02 01:18:46;;;;;;;6.60;3.23;;;18.70;99.90;;;;;;5056424;28;20444;-60
2023/09/02 01:21:52;;;;;;;9.43;3.17;;;18.70;99.90;;;;;;5055994;28;20508;-60
2023/09/02 01:24:45;;;;;;;3.97;3.03;;;18.70;99.90;;;;;;5056405;28;20426;-60
2023/09/02 01:27:20;;;;;;;6.10;3.07;;;18.70;99.90;;;;;;5055865;28;20444;-60
2023/09/02 01:29:57;;;;;;;4.10;2.70;;;18.70;99.90;;;;;;5056157;28;20421;-61
2023/09/02 01:32:27;;;;;;;6.93;3.87;;;18.70;99.90;;;;;;5056107;28;20465;-60
2023/09/02 01:34:55;;;;;;;6.60;4.73;;;18.70;99.90;;;;;;5056293;28;20449;-60
2023/09/02 01:37:23;;;;;;;9.23;4.20;;;18.70;99.90;;;;;;5056058;28;20437;-61
2023/09/02 01:39:52;;;;;;;5.47;4.13;;;18.70;99.90;;;;;;5055184;28;20839;-60
2023/09/02 01:42:21;;;;;;;4.40;4.00;;;18.60;99.90;;;;;;5055981;28;20469;-60
2023/09/02 01:44:48;;;;;;;5.93;5.00;;;18.60;99.90;;;;;;5056036;28;20446;-60
2023/09/02 01:47:16;;;;;;;9.07;5.30;;;18.60;99.90;;;;;;5055914;28;20457;-60
2023/09/02 01:49:43;;;;;;;6.00;5.27;;;18.60;99.90;;;;;;5055800;28;20456;-60
2023/09/02 01:52:10;;;;;;;6.33;4.97;;;18.60;99.90;;;;;;5055718;28;20466;-60
2023/09/02 01:54:37;;;;;;;7.90;6.63;;;18.60;99.90;;;;;;5055796;28;20452;-60
2023/09/02 01:57:04;;;;;;;14.70;7.03;;;18.50;99.90;;;;;;5055729;28;20855;-60
2023/09/02 01:59:32;;;;;;;10.00;7.03;;;18.50;99.90;;;;;;5055605;28;20445;-60
2023/09/02 02:02:00;;;;;;;8.43;7.00;;;18.50;99.90;;;;;;5055378;28;20477;-60
2023/09/02 02:04:34;;;;;;;9.07;6.07;;;18.50;99.90;;;;;;5055588;28;20445;-60
2023/09/02 02:07:06;;;;;;;8.00;6.67;;;18.50;99.90;;;;;;5055588;28;20465;-60
2023/09/02 02:09:36;;;;;;;13.17;6.40;;;18.40;99.90;;;;;;5055538;28;20450;-60
2023/09/02 02:12:04;;;;;;;13.70;6.57;;;18.40;99.90;;;;;;5055282;28;20466;-60
2023/09/02 02:14:35;;;;;;;9.10;6.63;;;18.40;99.90;;;;;;5055429;28;20461;-60
2023/09/02 02:17:03;;;;;;;11.97;6.27;;;18.40;99.90;;;;;;5055068;28;20838;-60
2023/09/02 02:19:30;;;;;;;8.40;6.87;;;18.40;99.90;;;;;;5055202;28;20580;-60
2023/09/02 02:21:57;;;;;;;8.37;6.27;;;18.40;99.90;;;;;;5054735;28;20852;-60
2023/09/02 02:24:24;;;;;;;11.27;6.50;;;18.40;99.90;;;;;;5055272;28;20480;-60
2023/09/02 02:26:51;;;;;;;8.50;6.80;;;18.40;99.90;;;;;;5055166;28;20446;-60
2023/09/02 02:29:17;;;;;;;11.20;7.50;;;18.40;99.90;;;;;;5055294;28;20445;-60
2023/09/02 02:31:46;;;;;;;11.47;6.70;;;18.40;99.90;;;;;;5055081;28;20833;-60
2023/09/02 02:34:12;;;;;;;7.40;6.67;;;18.40;99.90;;;;;;5054767;28;20955;-60
2023/09/02 02:36:39;;;;;;;10.83;7.67;;;18.40;99.90;;;;;;5055069;28;20454;-60
2023/09/02 02:39:06;;;;;;;9.93;6.80;;;18.40;99.90;;;;;;5054977;28;20449;-60
2023/09/02 02:41:33;;;;;;;9.00;6.80;;;18.40;99.90;;;;;;5054825;28;20485;-60
2023/09/02 02:44:00;;;;;;;12.03;6.77;;;18.40;99.90;;;;;;5054909;28;20855;-60
2023/09/02 02:46:27;;;;;;;9.27;6.33;;;18.40;99.90;;;;;;5054862;28;20441;-60
2023/09/02 02:48:55;;;;;;;6.97;5.93;;;18.40;99.90;;;;;;5054595;28;20835;-60
2023/09/02 02:51:21;;;;;;;6.97;6.23;;;18.30;99.90;;;;;;5053596;28;20830;-60
2023/09/02 02:53:48;;;;;;;9.67;5.90;;;18.30;99.90;;;;;;5054728;28;20448;-60
2023/09/02 02:56:15;;;;;;;12.30;6.83;;;18.30;99.90;;;;;;5054702;28;20500;-60
2023/09/02 02:58:42;;;;;;;11.47;6.80;;;18.30;99.90;;;;;;5054381;28;20448;-60
2023/09/02 03:01:11;;;;;;;12.77;6.73;;;18.30;99.90;;;;;;5054661;28;20508;-60
2023/09/02 03:03:38;;;;;;;8.50;6.73;;;18.30;99.90;;;;;;5054555;28;20519;-60
2023/09/02 03:06:06;;;;;;;11.10;6.57;;;18.30;99.90;;;;;;5054655;28;20446;-60
2023/09/02 03:08:33;;;;;;;8.13;6.63;;;18.20;99.90;;;;;;5054579;28;20449;-60
2023/09/02 03:11:02;;;;;;;14.33;7.47;;;18.20;99.90;;;;;;5054361;28;20438;-60
2023/09/02 03:13:30;;;;;;;7.80;6.60;;;18.20;99.90;;;;;;5054363;28;20826;-60
2023/09/02 03:15:57;;;;;;;9.07;6.57;;;18.20;99.90;;;;;;5054174;28;20445;-60
2023/09/02 03:18:24;;;;;;;8.63;7.10;;;18.20;99.90;;;;;;5054098;28;20449;-60
2023/09/02 03:20:51;;;;;;;10.97;7.17;;;18.20;99.90;;;;;;5053914;28;20564;-60
2023/09/02 03:23:19;;;;;;;10.07;7.00;;;18.20;99.90;;;;;;5053789;28;20971;-60
2023/09/02 03:25:46;;;;;;;9.60;7.10;;;18.20;99.90;;;;;;5054011;28;20441;-60
2023/09/02 03:28:13;;;;;;;11.73;7.10;;;18.20;99.90;;;;;;5053980;28;20438;-60
2023/09/02 03:30:40;;;;;;;11.10;7.47;;;18.20;99.90;;;;;;5053956;28;20476;-60
2023/09/02 03:33:07;;;;;;;8.20;7.27;;;18.10;99.90;;;;;;5053804;28;20469;-60
2023/09/02 03:35:38;;;;;;;8.83;7.90;;;18.10;99.90;;;;;;5053804;28;20472;-60
2023/09/02 03:38:05;;;;;;;9.20;7.47;;;18.10;99.90;;;;;;5053817;28;20836;-60
2023/09/02 03:40:34;;;;;;;12.30;7.50;;;18.10;99.90;;;;;;5053610;28;20442;-60
2023/09/02 03:43:01;;;;;;;11.80;8.07;;;18.10;99.90;;;;;;5053735;28;20476;-60
2023/09/02 03:45:26;;;;;;;9.70;7.10;;;18.10;99.90;;;;;;5053729;28;20442;-60
2023/09/02 03:47:53;;;;;;;9.03;7.07;;;18.10;99.90;;;;;;5053653;28;20460;-60
2023/09/02 03:50:25;;;;;;;7.10;6.40;;;18.00;99.90;;;;;;5053607;28;20199;-60
2023/09/02 03:52:51;;;;;;;8.43;7.13;;;18.00;99.90;;;;;;5053503;28;20466;-60
2023/09/02 03:55:18;;;;;;;7.43;6.73;;;18.00;99.90;;;;;;5053752;28;20452;-60
2023/09/02 03:57:46;;;;;;;7.93;7.20;;;18.00;99.90;;;;;;5053480;28;20858;-60
2023/09/02 04:00:15;;;;;;;8.00;7.20;;;17.90;99.90;;;;;;5053457;28;20442;-60
2023/09/02 04:02:42;;;;;;;8.20;6.67;;;17.90;99.90;;;;;;5052836;28;20488;-60
2023/09/02 04:05:09;;;;;;;12.20;8.67;;;17.90;99.90;;;;;;5053411;28;20468;-60
2023/09/02 04:07:36;;;;;;;9.97;7.30;;;17.90;99.90;;;;;;5053397;28;20445;-60
2023/09/02 04:10:03;;;;;;;8.07;7.30;;;17.90;99.90;;;;;;5053086;28;20955;-60
2023/09/02 04:12:30;;;;;;;9.50;7.03;;;17.80;99.90;;;;;;5053187;28;20870;-60
2023/09/02 04:14:58;;;;;;;10.20;7.43;;;17.80;99.90;;;;;;5052994;28;20830;-60
2023/09/02 04:17:24;;;;;;;8.07;7.27;;;17.80;99.90;;;;;;5053253;28;20449;-60
2023/09/02 04:19:54;;;;;;;7.60;6.90;;;17.80;99.90;;;;;;5053286;28;20449;-61
2023/09/02 04:22:21;;;;;;;9.33;7.13;;;17.80;99.90;;;;;;5053005;28;20564;-60
2023/09/02 04:24:48;;;;;;;9.97;7.57;;;17.80;99.90;;;;;;5053274;28;20438;-60
2023/09/02 04:27:15;;;;;;;8.90;7.70;;;17.70;99.90;;;;;;5053114;28;20495;-60
2023/09/02 04:29:42;;;;;;;8.90;7.87;;;17.70;99.90;;;;;;5053092;28;20521;-60
2023/09/02 04:32:11;;;;;;;8.40;7.50;;;17.70;99.90;;;;;;5053006;28;20484;-60
2023/09/02 04:34:37;;;;;;;8.73;6.97;;;17.70;99.90;;;;;;5053095;28;20469;-60
2023/09/02 04:37:04;;;;;;;8.70;7.17;;;17.70;99.90;;;;;;5053069;28;20446;-60
2023/09/02 04:39:31;;;;;;;14.10;6.80;;;17.70;99.90;;;;;;5053085;28;20444;-60
2023/09/02 04:41:57;;;;;;;6.93;6.33;;;17.70;99.90;;;;;;5052839;28;20497;-60
2023/09/02 04:44:24;;;;;;;10.33;7.60;;;17.70;99.90;;;;;;5053106;28;20437;-60
2023/09/02 04:46:51;;;;;;;9.97;7.00;;;17.70;99.90;;;;;;5052956;28;20449;-60
2023/09/02 04:49:19;;;;;;;9.00;6.73;;;17.70;99.90;;;;;;5053010;28;20457;-59
2023/09/02 04:51:47;;;;;;;9.00;7.23;;;17.70;99.90;;;;;;5052839;28;20464;-59
2023/09/02 04:54:14;;;;;;;10.27;6.97;;;17.60;99.90;;;;;;5052950;28;20480;-59
2023/09/02 04:56:41;;;;;;;8.23;7.40;;;17.60;99.90;;;;;;5052934;28;20473;-59
2023/09/02 04:59:08;;;;;;;7.57;6.70;;;17.60;99.90;;;;;;5052853;28;20445;-60
2023/09/02 05:01:35;;;;;;;8.37;6.63;;;17.60;99.90;;;;;;5052560;28;20485;-60
2023/09/02 05:04:01;;;;;;;7.60;6.90;;;17.60;99.90;;;;;;5052821;28;20449;-60
2023/09/02 05:06:29;;;;;;;10.13;7.17;;;17.60;99.90;;;;;;5052775;28;20433;-60
2023/09/02 05:08:56;;;;;;;10.40;7.23;;;17.60;99.90;;;;;;5052753;28;20449;-60
2023/09/02 05:11:23;;;;;;;11.30;6.93;;;17.50;99.90;;;;;;5052646;28;20507;-59
2023/09/02 05:13:50;;;;;;;8.93;7.33;;;17.60;99.90;;;;;;5053152;28;20450;-59
2023/09/02 05:16:16;;;;;;;10.17;7.70;;;17.60;99.90;;;;;;5056486;28;20448;-59
2023/09/02 05:18:43;;;;;;;8.40;6.60;;;17.60;99.90;;;;;;5056478;28;20452;-59
2023/09/02 05:21:09;;;;;;;9.20;8.30;;;17.60;99.90;;;;;;5056058;28;20484;-59
2023/09/02 05:23:37;;;;;;;8.47;7.30;;;17.60;99.90;;;;;;5056497;28;20483;-59
2023/09/02 05:26:04;;;;;;;8.73;7.83;;;17.60;99.90;;;;;;5056018;28;20851;-59
2023/09/02 05:28:31;;;;;;;7.53;6.83;;;17.60;99.90;;;;;;5056254;28;20441;-59
2023/09/02 05:30:58;;;;;;;9.20;7.80;;;17.70;99.90;;;;;;5056196;28;20454;-59
2023/09/02 05:33:24;;;;;;;10.70;7.70;;;17.70;99.90;;;;;;5055721;28;20970;-59
2023/09/02 05:35:52;;;;;;;10.77;8.40;;;17.70;99.90;;;;;;5056117;28;20445;-59
2023/09/02 05:38:19;;;;;;;13.53;9.80;;;17.70;99.90;;;;;;5056096;28;20449;-59
2023/09/02 05:40:47;;;;;;;13.67;10.07;;;17.80;99.90;;;;;;5055689;28;20939;-60
2023/09/02 05:43:14;;;;;;;12.67;11.37;;;17.80;99.90;;;;;;5055925;28;20493;-60
2023/09/02 05:45:40;;;;;;;14.90;11.53;;;17.80;99.90;;;;;;5056573;28;20445;-60
2023/09/02 05:48:07;;;;;;;15.50;11.80;;;17.90;99.90;;;;;;5057284;28;20532;-59
2023/09/02 05:50:34;;;;;;;15.90;12.53;;;17.90;99.90;;;;;;5056507;28;20446;-60
2023/09/02 05:53:01;;;;;;;13.30;9.97;;;17.90;99.90;;;;;;5056290;28;20466;-60
2023/09/02 05:55:27;;;;;;;17.50;11.40;;;17.90;99.90;;;;;;5055870;28;20813;-59
2023/09/02 05:57:55;;;;;;;16.47;12.10;;;18.00;99.90;;;;;;5055741;28;20453;-59
2023/09/02 06:00:22;;;;;;;15.93;12.30;;;18.00;99.90;;;;;;5056018;28;20461;-60
2023/09/02 06:02:49;;;;;;;18.53;13.57;;;18.10;99.90;;;;;;5055573;28;20482;-59
2023/09/02 06:05:16;;;;;;;17.53;12.87;;;18.10;99.90;;;;;;5055605;28;20442;-60
2023/09/02 06:07:42;;;;;;;18.87;15.07;;;18.10;99.90;;;;;;5055523;28;20445;-60
2023/09/02 06:10:10;;;;;;;18.30;13.33;;;18.20;99.90;;;;;;5055596;28;20460;-60
2023/09/02 06:12:37;;;;;;;17.90;12.63;;;18.30;99.90;;;;;;5055574;28;20468;-60
2023/09/02 06:15:06;;;;;;;19.50;14.20;;;18.30;99.90;;;;;;5055484;28;20445;-60
2023/09/02 06:17:33;;;;;;;20.03;14.50;;;18.40;99.90;;;;;;5055425;28;20445;-60
2023/09/02 06:20:00;;;;;;;17.47;13.80;;;18.40;99.90;;;;;;5055269;28;20460;-60
2023/09/02 06:22:27;;;;;;;15.47;11.90;;;18.50;99.90;;;;;;5054641;28;20492;-60
2023/09/02 06:24:54;;;;;;;18.10;14.07;;;18.50;99.90;;;;;;5055018;28;20445;-60
2023/09/02 06:27:21;;;;;;;24.83;16.40;;;18.60;99.90;;;;;;5054848;28;20939;-60
2023/09/02 06:29:48;;;;;;;17.60;14.30;;;18.60;99.90;;;;;;5055178;28;20449;-60
2023/09/02 06:32:16;;;;;;;18.27;15.03;;;18.70;99.90;;;;;;5055051;28;20473;-60
2023/09/02 06:34:42;;;;;;;22.37;16.30;;;18.80;99.90;;;;;;5055033;28;20437;-60
2023/09/02 06:37:09;;;;;;;15.03;12.97;;;18.80;99.90;;;;;;5054761;28;20943;-60
2023/09/02 06:39:36;;;;;;;18.87;15.13;;;18.90;99.90;;;;;;5054885;28;20457;-60
2023/09/02 06:42:03;;;;;;;17.83;14.97;;;18.90;99.90;;;;;;5054803;28;20488;-60
2023/09/02 06:44:29;;;;;;;20.07;14.80;;;19.00;99.90;;;;;;5054527;28;20943;-60
2023/09/02 06:46:56;;;;;;;19.80;16.77;;;19.10;99.90;;;;;;5054775;28;20520;-60
2023/09/02 06:49:24;;;;;;;22.67;17.73;;;19.10;99.90;;;;;;5054736;28;20507;-60
2023/09/02 06:51:51;;;;;;;27.17;17.87;;;19.20;99.90;;;;;;5054683;28;20498;-60
2023/09/02 06:54:17;;;;;;;20.47;17.60;;;19.20;99.90;;;;;;5054664;28;20449;-60
2023/09/02 06:56:45;;;;;;;30.00;20.10;;;19.20;99.90;;;;;;5054617;28;20516;-60
2023/09/02 06:59:11;;;;;;;25.80;19.20;;;19.30;99.90;;;;;;5054637;28;20473;-60
2023/09/02 07:01:38;;;;;;;26.40;19.50;;;19.40;99.90;;;;;;5054269;28;20537;-60
2023/09/02 07:04:05;;;;;;;24.97;19.67;;;19.40;99.90;;;;;;5054454;28;20452;-60
2023/09/02 07:06:33;;;;;;;25.30;19.77;;;19.50;99.90;;;;;;5054530;28;20450;-60
2023/09/02 07:08:59;;;;;;;28.03;21.30;;;19.60;99.90;;;;;;5054535;28;20452;-61
2023/09/02 07:11:26;;;;;;;23.27;18.50;;;19.60;99.90;;;;;;5054317;28;20891;-61
2023/09/02 07:13:53;;;;;;;29.80;22.80;;;19.70;99.90;;;;;;5054295;28;20477;-60
2023/09/02 07:16:21;;;;;;;27.10;23.00;;;19.80;99.90;;;;;;5054284;28;20445;-60
2023/09/02 07:18:47;;;;;;;22.53;18.23;;;19.90;99.90;;;;;;5054246;28;20449;-61
2023/09/02 07:21:14;;;;;;;22.27;19.47;;;20.00;99.90;;;;;;5053614;28;20445;-60
2023/09/02 07:23:42;;;;;;;19.40;16.80;;;20.10;99.60;;;;;;5054173;28;20494;-61
2023/09/02 07:26:09;;;;;;;20.80;17.50;;;20.20;99.30;;;;;;5054031;28;20444;-61
2023/09/02 07:28:37;;;;;;;17.83;15.13;;;20.40;99.30;;;;;;5054068;28;20449;-61
2023/09/02 07:31:05;;;;;;;15.23;13.63;;;20.40;99.00;;;;;;5053869;28;20442;-61
2023/09/02 07:33:32;;;;;;;16.63;13.00;;;20.60;98.70;;;;;;5053898;28;20469;-61
2023/09/02 07:35:59;;;;;;;15.90;13.37;;;20.70;98.30;;;;;;5054361;28;20454;-61
2023/09/02 07:38:26;;;;;;;14.17;12.67;;;20.80;97.90;;;;;;5053005;28;20800;-60
2023/09/02 07:40:54;;;;;;;14.87;13.13;;;20.90;97.80;;;;;;5053808;28;20442;-60
2023/09/02 07:43:21;;;;;;;14.50;12.00;;;20.90;97.70;;;;;;5053666;28;20843;-61
2023/09/02 07:45:49;;;;;;;12.60;11.30;;;21.00;97.60;;;;;;5053689;28;20446;-61
2023/09/02 07:48:15;;;;;;;18.40;12.17;;;21.10;97.50;;;;;;5053393;28;20890;-61
2023/09/02 07:50:42;;;;;;;13.40;12.00;;;21.20;97.40;;;;;;5053566;28;20450;-61
2023/09/02 07:53:09;;;;;;;16.97;11.73;;;21.30;97.20;;;;;;5053590;28;20461;-61
2023/09/02 07:55:35;;;;;;;12.63;11.33;;;21.40;97.10;;;;;;5053632;28;20450;-61
2023/09/02 07:58:04;;;;;;;12.70;11.50;;;21.60;97.10;;;;;;5053512;28;20473;-61
2023/09/02 08:00:30;;;;;;;12.80;10.90;;;21.70;96.90;;;;;;5062520;28;20471;-61
2023/09/02 08:02:58;;;;;;;9.73;8.83;;;21.80;96.60;;;;;;5073195;28;20476;-61
2023/09/02 08:05:25;;;;;;;12.23;10.73;;;21.90;96.40;;;;;;5073464;28;20445;-61
2023/09/02 08:07:52;;;;;;;13.30;11.20;;;22.10;96.10;;;;;;5073479;28;20445;-61
2023/09/02 08:10:18;;;;;;;12.27;10.97;;;22.20;96.10;;;;;;5073461;28;20448;-61
2023/09/02 08:12:45;;;;;;;12.43;11.13;;;22.40;95.70;;;;;;5073436;28;20457;-61
2023/09/02 08:15:14;;;;;;;11.27;10.07;;;22.50;95.60;;;;;;5073389;28;20474;-61
2023/09/02 08:17:42;;;;;;;14.27;11.07;;;22.60;95.40;;;;;;5073374;28;20448;-61
2023/09/02 08:20:10;;;;;;;13.00;11.40;;;22.80;95.10;;;;;;5073095;28;20950;-61
2023/09/02 08:22:39;;;;;;;12.90;11.03;;;22.90;94.80;;;;;;5072872;28;20500;-61
2023/09/02 08:25:06;;;;;;;9.93;8.90;;;23.00;94.70;;;;;;5073338;28;20441;-61
2023/09/02 08:27:33;;;;;;;10.03;8.97;;;23.10;94.40;;;;;;5073317;28;20441;-61
2023/09/02 08:29:59;;;;;;;10.20;8.73;;;23.30;94.20;;;;;;5073157;28;20448;-61
2023/09/02 08:32:29;;;;;;;11.67;10.57;;;23.50;93.90;;;;;;5072774;28;20457;-61
2023/09/02 08:34:56;;;;;;;15.07;10.70;;;23.60;93.60;;;;;;5073286;28;20453;-61
2023/09/02 08:37:23;;;;;;;11.97;10.77;;;23.70;93.30;;;;;;5073215;28;20447;-61
2023/09/02 08:39:51;;;;;;;11.07;9.97;;;23.90;93.00;;;;;;5073371;28;20445;-61
2023/09/02 08:42:18;;;;;;;12.70;10.80;;;24.10;92.90;;;;;;5072883;28;21052;-61
2023/09/02 08:44:47;;;;;;;14.13;12.60;;;24.20;92.50;;;;;;5073747;28;20502;-62
2023/09/02 08:47:15;;;;;;;12.00;10.80;;;24.40;92.90;;;;;;5067401;28;20474;-61
2023/09/02 08:49:43;;;;;;;13.80;11.13;;;24.70;92.90;;;;;;5054978;28;20442;-61
2023/09/02 08:52:11;;;;;;;13.53;12.03;;;25.00;92.60;;;;;;5057459;28;20454;-63
2023/09/02 08:54:39;;;;;;;13.87;11.00;;;25.20;91.90;;;;;;5058482;28;20464;-61
2023/09/02 08:57:06;;;;;;;11.27;10.07;;;25.60;91.20;;;;;;5059475;28;20997;-62
2023/09/02 08:59:33;;;;;;;13.97;12.13;;;25.90;90.50;;;;;;5058853;28;20441;-62
2023/09/02 09:02:01;;;;;;;12.97;10.97;;;26.20;90.00;;;;;;5057782;28;20473;-62
2023/09/02 09:04:32;;;;;;;10.83;9.80;;;26.40;89.10;;;;;;5057137;28;20857;-61
2023/09/02 09:07:03;;;;;;;7.97;7.27;;;26.70;87.30;;;;;;5056969;28;20799;-61
2023/09/02 09:09:31;;;;;;;10.13;8.87;;;26.90;85.20;;;;;;5056500;28;20432;-61
2023/09/02 09:12:01;;;;;;;8.93;8.03;;;27.10;83.50;;;;;;5056672;28;20473;-61
2023/09/02 09:14:31;;;;;;;9.80;8.80;;;27.40;82.70;;;;;;5056779;28;20433;-61
2023/09/02 09:16:59;;;;;;;9.00;8.10;;;27.70;82.10;;;;;;5056588;28;20432;-61
2023/09/02 09:19:27;;;;;;;8.70;7.20;;;28.00;80.60;;;;;;5056449;28;20948;-61
2023/09/02 09:21:54;;;;;;;10.50;8.70;;;28.30;79.20;;;;;;5056264;28;21003;-61
2023/09/02 09:24:28;;;;;;;9.27;7.73;;;28.50;77.90;;;;;;5056429;28;20513;-61
2023/09/02 09:27:01;;;;;;;7.20;6.50;;;28.80;76.50;;;;;;5056144;28;20425;-61
2023/09/02 09:29:36;;;;;;;7.23;6.50;;;28.90;75.30;;;;;;5056268;28;20448;-61
2023/09/02 09:32:13;;;;;;;7.60;6.90;;;29.10;74.10;;;;;;5056035;28;20465;-61
2023/09/02 09:34:41;;;;;;;8.83;7.33;;;29.40;73.50;;;;;;5056242;28;20432;-61
2023/09/02 09:37:09;;;;;;;9.47;7.57;;;29.70;72.80;;;;;;5056702;28;20520;-61
2023/09/02 09:39:45;;;;;;;8.23;7.43;;;30.00;71.90;;;;;;5056151;28;20477;-62
2023/09/02 09:42:14;;;;;;;8.70;7.90;;;30.20;69.50;;;;;;5055923;28;20525;-61
2023/09/02 09:44:55;;;;;;;7.00;6.40;;;30.40;67.10;;;;;;5055667;28;20441;-61
2023/09/02 09:47:23;;;;;;;6.90;6.20;;;30.60;64.70;;;;;;5056016;28;20535;-61
2023/09/02 09:49:50;;;;;;;6.40;5.80;;;30.60;64.70;;;;;;5055848;28;20444;-62
2023/09/02 09:52:18;;;;;;;7.20;6.23;;;30.70;64.10;;;;;;5056688;28;20549;-61
2023/09/02 09:54:48;;;;;;;6.10;5.47;;;30.80;64.00;;;;;;5055923;28;20445;-62
2023/09/02 09:57:16;;;;;;;6.83;4.70;;;30.90;63.80;;;;;;5055861;28;20524;-62
2023/09/02 09:59:52;;;;;;;9.13;5.30;;;31.00;62.50;;;;;;5055250;28;20814;-61
2023/09/02 10:02:20;;;;;;;6.47;5.87;;;31.00;62.30;;;;;;5055626;28;20472;-61
2023/09/02 10:04:52;;;;;;;7.10;6.40;;;31.20;62.80;;;;;;5055689;28;20539;-61
2023/09/02 10:07:24;;;;;;;7.40;6.60;;;31.30;62.00;;;;;;5055635;28;20456;-61
2023/09/02 10:09:54;;;;;;;6.20;5.60;;;31.50;61.30;;;;;;5055779;28;20461;-61
2023/09/02 10:12:21;;;;;;;9.83;6.70;;;31.70;59.90;;;;;;5055524;28;20461;-61
2023/09/02 10:14:49;;;;;;;11.10;7.43;;;32.10;58.20;;;;;;5055667;28;20448;-62
2023/09/02 10:17:17;;;;;;;6.20;5.60;;;32.60;57.20;;;;;;5055633;28;20441;-61
2023/09/02 10:19:45;;;;;;;8.17;5.20;;;33.00;55.20;;;;;;5055239;28;20818;-61
2023/09/02 10:22:18;;;;;;;13.70;8.10;;;33.50;54.90;;;;;;5055118;28;20473;-61
2023/09/02 10:24:51;;;;;;;10.67;7.60;;;34.20;54.90;;;;;;5055831;28;20559;-61
2023/09/02 10:27:23;;;;;;;12.77;7.93;;;34.70;51.80;;;;;;5055429;28;20838;-61
2023/09/02 10:29:55;;;;;;;7.90;6.03;;;35.00;50.00;;;;;;5055104;28;20468;-61
2023/09/02 10:32:26;;;;;;;6.30;4.67;;;34.90;49.10;;;;;;5055103;28;20277;-61
2023/09/02 10:34:59;;;;;;;6.57;5.87;;;34.90;49.30;;;;;;5055155;28;20421;-61
2023/09/02 10:37:30;;;;;;;5.10;4.60;;;34.90;48.90;;;;;;5055155;28;20190;-61
2023/09/02 10:40:02;;;;;;;7.73;6.93;;;34.90;48.40;;;;;;5055034;28;20222;-61
2023/09/02 10:42:30;;;;;;;6.37;5.87;;;34.90;48.00;;;;;;5054881;28;20453;-61
2023/09/02 10:44:58;;;;;;;8.30;5.67;;;35.00;47.30;;;;;;5054917;28;20573;-61
2023/09/02 10:47:24;;;;;;;6.40;5.27;;;34.80;47.10;;;;;;5054535;28;20622;-61
2023/09/02 10:49:52;;;;;;;5.43;5.03;;;34.40;47.60;;;;;;5054527;28;20668;-61
2023/09/02 10:52:19;;;;;;;4.23;3.93;;;33.80;48.40;;;;;;5054357;28;20849;-61
2023/09/02 10:55:02;;;;;;;7.20;4.97;;;33.30;49.50;;;;;;5054709;28;20437;-61
2023/09/02 10:57:31;;;;;;;5.00;4.50;;;32.90;51.10;;;;;;5054633;28;20532;-61
2023/09/02 11:00:13;;;;;;;5.57;4.60;;;32.60;52.40;;;;;;5054282;28;20864;-61
2023/09/02 11:02:40;;;;;;;5.70;5.20;;;32.70;53.20;;;;;;5054329;28;20461;-61
2023/09/02 11:05:08;;;;;;;6.37;5.37;;;32.70;52.50;;;;;;5054566;28;20523;-61
2023/09/02 11:07:35;;;;;;;8.43;6.30;;;33.00;51.90;;;;;;5054521;28;20491;-61
2023/09/02 11:10:02;;;;;;;7.67;6.00;;;33.40;52.00;;;;;;5054229;28;20515;-61
2023/09/02 11:12:33;;;;;;;10.67;6.87;;;33.50;50.40;;;;;;5053102;28;21041;-61
2023/09/02 11:15:26;;;;;;;5.73;5.23;;;33.60;49.80;;;;;;5054323;28;20432;-62
2023/09/02 11:17:53;;;;;;;5.30;4.70;;;34.40;49.00;;;;;;5018629;28;20869;-61
2023/09/02 11:20:23;;;;;;;9.23;6.93;;;35.50;47.70;;;;;;5054231;28;20484;-61
2023/09/02 11:22:55;;;;;;;7.35;5.40;;;36.40;45.40;;;;;;5053689;28;20242;-61
2023/09/02 11:25:30;;;;;;;8.27;4.93;;;36.60;42.90;;;;;;5054081;28;20198;-60
2023/09/02 11:28:00;;;;;;;4.55;3.97;;;36.80;42.30;;;;;;5054043;28;20186;-60
2023/09/02 11:30:29;;;;;;;4.05;3.30;;;37.20;41.70;;;;;;5053656;28;20750;-61
2023/09/02 11:32:56;;;;;;;9.60;6.18;;;37.70;40.50;;;;;;5053882;28;20223;-60
2023/09/02 11:35:27;;;;;;;4.03;3.72;;;38.30;39.20;;;;;;5053931;28;20198;-61
2023/09/02 11:37:54;;;;;;;5.55;4.85;;;38.80;38.40;;;;;;5054015;28;20209;-61
2023/09/02 11:40:25;;;;;;;4.00;3.65;;;38.80;38.60;;;;;;5053904;28;20213;-61
2023/09/02 11:42:52;;;;;;;4.38;3.97;;;38.40;38.70;;;;;;5053701;28;20268;-61
2023/09/02 11:45:22;;;;;;;3.20;2.90;;;38.30;39.30;;;;;;5053712;28;20199;-61
2023/09/02 11:47:49;;;;;;;3.97;3.28;;;38.70;39.40;;;;;;5053576;28;20202;-61
2023/09/02 11:50:17;;;;;;;3.15;2.85;;;39.50;38.00;;;;;;5053716;28;20571;-61
2023/09/02 11:52:45;;;;;;;6.03;3.15;;;40.10;35.90;;;;;;5053533;28;20226;-61
2023/09/02 11:55:14;;;;;;;3.88;3.58;;;40.50;35.20;;;;;;5053689;28;20198;-62
2023/09/02 11:57:41;;;;;;;4.85;4.35;;;41.00;34.10;;;;;;5053737;28;20202;-62
2023/09/02 12:00:09;;;;;;;3.45;3.15;;;41.30;31.10;;;;;;5053686;28;20206;-61
2023/09/02 12:02:38;;;;;;;2.90;2.70;;;41.30;31.30;;;;;;5053584;28;20218;-61
2023/09/02 12:05:05;;;;;;;2.70;2.30;;;41.50;31.00;;;;;;5053506;28;20195;-61
2023/09/02 12:07:34;;;;;;;2.40;2.05;;;42.00;31.70;;;;;;5053432;28;20206;-61
2023/09/02 12:10:07;;;;;;;4.68;2.92;;;42.40;29.30;;;;;;5053445;28;20209;-61
2023/09/02 12:12:34;;;;;;;2.70;2.50;;;42.70;29.30;;;;;;5053421;28;20254;-61
2023/09/02 12:15:01;;;;;;;2.20;1.80;;;43.40;29.20;;;;;;5053170;28;20226;-61
2023/09/02 12:17:28;;;;;;;3.70;2.50;;;43.70;28.90;;;;;;5053268;28;20230;-61
2023/09/02 12:19:56;;;;;;;2.83;2.17;;;43.90;27.90;;;;;;5053217;28;20234;-61
2023/09/02 12:22:23;;;;;;;2.80;2.17;;;43.60;27.00;;;;;;5052963;28;20230;-61
2023/09/02 12:24:50;;;;;;;2.92;2.72;;;42.90;27.60;;;;;;5052700;28;20576;-61
2023/09/02 12:27:17;;;;;;;3.63;3.25;;;42.50;28.80;;;;;;5053213;28;20214;-61
2023/09/02 12:29:54;;;;;;;2.10;1.83;;;42.20;28.40;;;;;;5053173;28;20237;-61
2023/09/02 12:32:20;;;;;;;2.28;2.08;;;41.60;29.50;;;;;;5053097;28;20229;-61
2023/09/02 12:34:47;;;;;;;3.08;2.10;;;41.10;30.70;;;;;;5053067;28;20233;-61
2023/09/02 12:37:17;;;;;;;3.28;2.50;;;40.20;31.30;;;;;;5053079;28;20199;-61
2023/09/02 12:39:43;;;;;;;2.88;2.45;;;39.50;32.80;;;;;;5053125;28;20640;-61
2023/09/02 12:42:17;;;;;;;2.75;2.55;;;39.00;33.30;;;;;;5053005;28;20230;-61
2023/09/02 12:44:49;;;;;;;3.60;2.65;;;38.50;33.80;;;;;;5053826;28;20194;-61